createdAt,value
2023-01-28T09:06:52.408Z,101336.20
2023-01-28T09:09:20.376Z,101334.60
2023-01-28T09:11:48.205Z,101339.60
2023-01-28T09:14:16.011Z,101344.00
2023-01-28T09:16:43.780Z,101338.40
2023-01-28T09:19:11.592Z,101347.00
2023-01-28T09:21:40.713Z,101344.20
2023-01-28T09:24:12.131Z,101350.20
2023-01-28T09:26:40.012Z,101348.40
2023-01-28T09:29:07.815Z,101360.00
2023-01-28T09:31:35.800Z,101359.80
2023-01-28T09:34:04.275Z,101364.00
2023-01-28T09:36:32.940Z,101361.60
2023-01-28T09:39:01.799Z,101359.60
2023-01-28T09:41:42.356Z,101363.20
2023-01-28T09:44:31.387Z,101360.80
2023-01-28T09:47:05.324Z,101365.60
2023-01-28T09:49:46.057Z,101362.60
2023-01-28T09:52:19.023Z,101353.40
2023-01-28T09:54:56.166Z,101358.40
2023-01-28T09:57:27.562Z,101353.60
2023-01-28T09:59:55.335Z,101357.20
2023-01-28T10:03:13.201Z,101354.80
2023-01-28T10:06:14.645Z,101350.20
2023-01-28T10:09:20.221Z,101343.60
2023-01-28T10:12:08.739Z,101341.40
2023-01-28T10:15:07.964Z,101340.80
2023-01-28T10:17:45.101Z,101339.20
2023-01-28T10:20:14.181Z,101336.60
2023-01-28T10:22:52.268Z,101334.60
2023-01-28T10:25:29.884Z,101336.40
2023-01-28T10:27:58.730Z,101334.80
2023-01-28T10:30:32.037Z,101335.80
2023-01-28T10:33:04.736Z,101332.40
2023-01-28T10:35:39.233Z,101332.40
2023-01-28T10:38:14.130Z,101327.40
2023-01-28T10:40:43.758Z,101331.20
2023-01-28T10:43:11.636Z,101333.40
2023-01-28T10:46:13.044Z,101332.20
2023-01-28T10:49:06.223Z,101324.80
2023-01-28T10:51:38.663Z,101322.80
2023-01-28T10:54:26.319Z,101328.40
2023-01-28T10:57:18.980Z,101322.80
2023-01-28T10:59:46.972Z,101316.20
2023-01-28T11:02:42.052Z,101323.40
2023-01-28T11:05:26.578Z,101326.60
2023-01-28T11:08:16.758Z,101323.20
2023-01-28T11:10:46.027Z,101315.80
2023-01-28T11:13:26.330Z,101318.20
2023-01-28T11:16:18.049Z,101318.60
2023-01-28T11:19:03.153Z,101317.20
2023-01-28T11:21:33.015Z,101307.00
2023-01-28T11:24:32.269Z,101314.20
2023-01-28T11:27:15.588Z,101308.80
2023-01-28T11:29:43.827Z,101304.60
2023-01-28T11:32:24.656Z,101303.40
2023-01-28T11:34:57.437Z,101303.80
2023-01-28T11:37:28.832Z,101310.20
2023-01-28T11:40:25.199Z,101304.20
2023-01-28T11:43:00.498Z,101300.80
2023-01-28T11:45:46.590Z,101295.40
2023-01-28T11:48:44.879Z,101297.80
2023-01-28T11:51:44.036Z,101295.40
2023-01-28T11:54:46.006Z,101295.20
2023-01-28T11:58:02.291Z,101300.40
2023-01-28T12:00:52.932Z,101296.20
2023-01-28T12:03:37.739Z,101295.80
2023-01-28T12:06:47.318Z,101289.60
2023-01-28T12:09:29.310Z,101292.20
2023-01-28T12:12:26.239Z,101290.00
2023-01-28T12:15:23.883Z,101289.60
2023-01-28T12:18:18.900Z,101294.20
2023-01-28T12:21:00.163Z,101287.20
2023-01-28T12:24:00.310Z,101282.20
2023-01-28T12:26:51.032Z,101293.20
2023-01-28T12:29:33.414Z,101290.20
2023-01-28T12:32:20.197Z,101287.80
2023-01-28T12:35:08.112Z,101286.60
2023-01-28T12:38:03.880Z,101289.40
2023-01-28T12:41:12.148Z,101290.40
2023-01-28T12:43:43.009Z,101282.00
2023-01-28T12:46:43.643Z,101280.60
2023-01-28T12:49:18.971Z,101285.40
2023-01-28T12:52:02.548Z,101276.00
2023-01-28T12:54:43.886Z,101280.80
2023-01-28T12:57:22.300Z,101285.20
2023-01-28T13:00:24.482Z,101286.20
2023-01-28T13:03:21.295Z,101295.40
2023-01-28T13:06:00.589Z,101292.80
2023-01-28T13:08:29.994Z,101291.20
2023-01-28T13:11:01.031Z,101289.80
2023-01-28T13:13:37.723Z,101288.00
2023-01-28T13:16:08.826Z,101286.80
2023-01-28T13:18:39.719Z,101288.60
2023-01-28T13:21:25.826Z,101289.00
2023-01-28T13:24:04.672Z,101288.40
2023-01-28T13:26:47.190Z,101292.60
2023-01-28T13:29:14.835Z,101289.00
2023-01-28T13:31:52.097Z,101292.60
2023-01-28T13:34:46.439Z,101286.40
2023-01-28T13:37:39.623Z,101290.80
2023-01-28T13:40:29.469Z,101295.60
2023-01-28T13:43:24.905Z,101293.80
2023-01-28T13:46:02.990Z,101300.20
2023-01-28T13:48:55.050Z,101301.20
2023-01-28T13:51:38.687Z,101294.80
2023-01-28T13:54:21.071Z,101301.20
2023-01-28T13:57:01.249Z,101296.60
2023-01-28T13:59:56.844Z,101295.40
2023-01-28T14:02:58.679Z,101300.60
2023-01-28T14:05:45.124Z,101298.60
2023-01-28T14:08:48.381Z,101294.60
2023-01-28T14:11:49.659Z,101295.60
2023-01-28T14:15:15.024Z,101286.60
2023-01-28T14:17:46.689Z,101281.00
2023-01-28T14:20:47.516Z,101285.60
2023-01-28T14:23:22.014Z,101290.40
2023-01-28T14:26:11.544Z,101298.60
2023-01-28T14:28:51.712Z,101294.80
2023-01-28T14:31:29.052Z,101298.40
2023-01-28T14:34:14.659Z,101298.00
2023-01-28T14:36:45.570Z,101298.40
2023-01-28T14:39:28.979Z,101298.60
2023-01-28T14:42:01.337Z,101296.40
2023-01-28T14:44:40.527Z,101297.20
2023-01-28T14:47:43.963Z,101295.20
2023-01-28T14:50:45.690Z,101299.00
2023-01-28T14:54:06.620Z,101301.00
2023-01-28T14:56:58.461Z,101303.80
2023-01-28T14:59:43.968Z,101296.00
2023-01-28T15:02:30.554Z,101296.20
2023-01-28T15:05:21.568Z,101300.20
2023-01-28T15:07:50.616Z,101300.40
2023-01-28T15:10:36.546Z,101301.80
2023-01-28T15:13:18.645Z,101304.00
2023-01-28T15:15:49.880Z,101303.60
2023-01-28T15:18:38.207Z,101305.20
2023-01-28T15:21:06.254Z,101308.20
2023-01-28T15:23:36.193Z,101310.00
2023-01-28T15:26:20.899Z,101310.20
2023-01-28T15:28:50.129Z,101313.80
2023-01-28T15:31:39.012Z,101317.20
2023-01-28T15:34:17.876Z,101317.40
2023-01-28T15:36:50.257Z,101321.20
2023-01-28T15:39:22.228Z,101315.80
2023-01-28T15:42:02.264Z,101319.60
2023-01-28T15:44:35.937Z,101324.60
2023-01-28T15:47:14.345Z,101325.40
2023-01-28T15:49:46.620Z,101326.60
2023-01-28T15:52:15.097Z,101327.20
2023-01-28T15:54:51.221Z,101328.40
2023-01-28T15:57:28.639Z,101334.80
2023-01-28T16:00:18.589Z,101329.80
2023-01-28T16:02:52.907Z,101331.40
2023-01-28T16:06:02.958Z,101328.20
2023-01-28T16:09:01.463Z,101323.60
2023-01-28T16:11:35.648Z,101329.40
2023-01-28T16:14:03.917Z,101332.00
2023-01-28T16:16:37.835Z,101334.00
2023-01-28T16:19:07.485Z,101338.60
2023-01-28T16:21:43.241Z,101341.00
2023-01-28T16:24:32.432Z,101345.00
2023-01-28T16:27:25.628Z,101342.20
